Time;durP1;ratioP1;P1;durP2;ratioP2;P2;SDS_P1;SDS_P2;PMS_P1;PMS_P2;Temp;Humidity;BMP_temperature;BMP_pressure;BME280_temperature;BME280_humidity;BME280_pressure;Samples;Min_cycle;Max_cycle;Signal;HPM_P1;HPM_P2
2023/04/14 00:00:09;;;;;;;4.35;2.42;;;;;;;9.95;96.12;99585.18;1776517;79;21446;-57
2023/04/14 00:02:41;;;;;;;4.58;2.83;;;;;;;9.96;96.03;99590.97;1776078;79;21042;-57
2023/04/14 00:05:10;;;;;;;5.08;2.95;;;;;;;9.98;95.97;99601.17;1776197;81;20998;-58
2023/04/14 00:07:40;;;;;;;4.10;2.60;;;;;;;9.96;95.71;99597.28;1776410;79;21007;-57
2023/04/14 00:10:10;;;;;;;8.25;2.50;;;;;;;9.94;95.62;99589.81;1776521;80;21014;-57
2023/04/14 00:12:39;;;;;;;5.30;2.90;;;;;;;9.95;95.54;99596.13;1776542;81;21063;-59
2023/04/14 00:15:09;;;;;;;4.50;2.90;;;;;;;9.94;95.40;99587.08;1776321;80;21030;-57
2023/04/14 00:17:38;;;;;;;4.08;2.60;;;;;;;9.95;95.30;99601.07;1776522;81;21022;-57
2023/04/14 00:20:10;;;;;;;4.75;2.70;;;;;;;9.95;94.98;99596.13;1776294;79;21427;-58
2023/04/14 00:22:39;;;;;;;6.25;2.50;;;;;;;9.93;94.72;99591.39;1776349;79;21462;-58
2023/04/14 00:25:09;;;;;;;4.10;2.60;;;;;;;9.94;94.60;99600.76;1776211;80;21034;-57
2023/04/14 00:27:37;;;;;;;5.12;2.87;;;;;;;9.94;94.56;99600.76;1740044;82;21033;-58
2023/04/14 00:30:11;;;;;;;4.40;2.58;;;;;;;9.94;94.40;99602.66;1739825;81;21037;-57
2023/04/14 00:32:41;;;;;;;4.05;2.92;;;;;;;9.94;94.18;99602.66;1739821;82;21056;-57
2023/04/14 00:35:10;;;;;;;5.35;2.50;;;;;;;9.94;93.90;99601.28;1739805;81;21065;-58
2023/04/14 00:37:41;;;;;;;4.00;2.50;;;;;;;9.90;93.53;99600.03;1739709;82;21029;-56
2023/04/14 00:40:09;;;;;;;4.45;2.50;;;;;;;9.88;93.43;99598.88;1740056;81;21009;-57
2023/04/14 00:42:44;;;;;;;3.20;2.40;;;;;;;9.87;93.37;99595.83;1739828;81;21445;-57
2023/04/14 00:45:12;;;;;;;3.60;2.83;;;;;;;9.87;93.30;99597.72;1739172;81;21532;-56
2023/04/14 00:47:46;;;;;;;4.87;3.10;;;;;;;9.86;93.16;99603.72;1739788;82;21507;-56
2023/04/14 00:50:17;;;;;;;6.47;2.67;;;;;;;9.85;92.92;99598.77;1739876;82;20998;-57
2023/04/14 00:52:47;;;;;;;4.58;2.75;;;;;;;9.84;92.97;99605.30;1739626;82;21100;-58
2023/04/14 00:55:17;;;;;;;5.45;2.60;;;;;;;9.83;92.74;99606.35;1739501;82;21467;-57
2023/04/14 00:57:46;;;;;;;6.47;2.85;;;;;;;9.82;92.62;99593.73;1739819;82;21057;-57
2023/04/14 01:00:16;;;;;;;6.47;2.72;;;;;;;9.80;92.43;99597.20;1739505;82;20998;-56
2023/04/14 01:02:46;;;;;;;5.03;2.60;;;;;;;9.77;92.36;99598.16;1739868;82;21503;-57
2023/04/14 01:05:16;;;;;;;3.95;2.70;;;;;;;9.77;92.46;99601.73;1739657;82;21053;-57
2023/04/14 01:07:47;;;;;;;3.60;2.50;;;;;;;9.79;92.55;99602.36;1739567;82;21065;-57
2023/04/14 01:10:16;;;;;;;3.70;2.60;;;;;;;9.80;92.44;99604.05;1739899;82;21068;-57
2023/04/14 01:13:26;;;;;;;5.67;2.98;;;;;;;9.84;92.59;99612.67;1739754;81;21021;-57
2023/04/14 01:16:02;;;;;;;5.47;3.10;;;;;;;9.84;92.35;99620.87;1739698;81;21021;-59
2023/04/14 01:18:42;;;;;;;7.33;3.72;;;;;;;9.81;92.18;99618.56;1740013;82;21045;-57
2023/04/14 01:21:15;;;;;;;6.45;3.87;;;;;;;9.74;91.71;99627.27;1739968;82;21069;-58
2023/04/14 01:23:53;;;;;;;7.25;3.60;;;;;;;9.71;91.78;99616.75;1740009;82;21025;-56
2023/04/14 01:26:29;;;;;;;5.95;3.72;;;;;;;9.69;91.76;99621.59;1752857;80;21081;-56
2023/04/14 01:29:25;;;;;;;5.75;3.47;;;;;;;9.66;91.79;99618.75;1778318;81;20999;-57
2023/04/14 01:32:08;;;;;;;5.28;3.50;;;;;;;9.63;91.75;99612.34;1777864;80;21443;-56
2023/04/14 01:34:53;;;;;;;4.67;3.52;;;;;;;9.62;91.75;99619.38;1777903;79;21430;-57
2023/04/14 01:37:32;;;;;;;5.90;3.52;;;;;;;9.58;91.75;99617.59;1778125;79;21066;-58
2023/04/14 01:40:06;;;;;;;6.65;3.80;;;;;;;9.55;91.74;99618.02;1777827;81;21045;-57
2023/04/14 01:42:35;;;;;;;6.17;3.90;;;;;;;9.53;91.81;99619.59;1778041;81;21487;-56
2023/04/14 01:45:19;;;;;;;6.72;3.67;;;;;;;9.51;91.96;99614.02;1747938;81;21423;-59
2023/04/14 01:47:49;;;;;;;8.70;4.15;;;;;;;9.54;92.05;99614.97;1778118;79;21014;-57
2023/04/14 01:50:19;;;;;;;6.65;3.60;;;;;;;9.53;92.00;99619.59;1748472;81;21430;-57
2023/04/14 01:52:52;;;;;;;5.15;3.62;;;;;;;9.52;91.92;99617.91;1777869;80;21046;-57
2023/04/14 01:55:23;;;;;;;5.85;3.67;;;;;;;9.53;91.92;99626.43;1777784;79;21536;-57
2023/04/14 01:57:54;;;;;;;7.25;3.90;;;;;;;9.53;91.94;99624.22;1777860;79;21061;-57
2023/04/14 02:00:23;;;;;;;7.37;3.50;;;;;;;9.55;92.06;99616.65;1747547;81;21026;-56
2023/04/14 02:02:53;;;;;;;5.30;3.83;;;;;;;9.54;91.98;99621.80;1777892;79;21138;-57
2023/04/14 02:05:25;;;;;;;5.50;3.40;;;;;;;9.57;92.07;99626.02;1778078;79;21102;-59
2023/04/14 02:07:54;;;;;;;6.75;3.90;;;;;;;9.56;91.91;99629.80;1777732;80;21480;-57
2023/04/14 02:10:22;;;;;;;6.05;3.85;;;;;;;9.56;91.73;99623.80;1777785;81;21034;-56
2023/04/14 02:12:54;;;;;;;7.37;3.52;;;;;;;9.51;91.40;99626.33;1777844;79;21547;-56
2023/04/14 02:15:24;;;;;;;5.60;4.00;;;;;;;9.47;91.31;99627.80;1777906;81;20991;-57
2023/04/14 02:17:53;;;;;;;7.83;3.65;;;;;;;9.44;91.24;99630.42;1777833;79;21043;-56
2023/04/14 02:20:22;;;;;;;7.25;3.77;;;;;;;9.44;91.30;99632.31;1777796;79;21077;-57
2023/04/14 02:22:53;;;;;;;6.50;4.08;;;;;;;9.43;91.32;99633.37;1711591;83;21051;-57
2023/04/14 02:25:23;;;;;;;5.83;3.87;;;;;;;9.44;91.32;99635.05;1711757;84;21466;-57
2023/04/14 02:27:55;;;;;;;6.80;3.72;;;;;;;9.43;91.24;99645.67;1725050;83;21089;-57
2023/04/14 02:30:40;;;;;;;7.50;4.17;;;;;;;9.45;91.34;99638.10;1727644;83;21042;-56
2023/04/14 02:33:15;;;;;;;7.42;3.98;;;;;;;9.45;91.36;99649.04;1727572;83;21038;-57
2023/04/14 02:35:52;;;;;;;6.05;4.00;;;;;;;9.43;91.29;99651.14;1727367;83;21478;-57
2023/04/14 02:38:37;;;;;;;6.78;3.65;;;;;;;9.41;91.14;99655.97;1727422;82;20994;-58
2023/04/14 02:41:10;;;;;;;8.58;3.92;;;;;;;9.39;91.28;99653.45;1753978;81;21003;-56
2023/04/14 02:44:05;;;;;;;6.30;4.12;;;;;;;9.39;91.46;99663.55;1778738;81;20975;-57
2023/04/14 02:46:38;;;;;;;5.75;3.87;;;;;;;9.38;91.70;99661.34;1778921;81;21062;-57
2023/04/14 02:49:09;;;;;;;9.10;4.60;;;;;;;9.37;91.69;99662.91;1778726;79;21022;-57
2023/04/14 02:51:40;;;;;;;7.55;4.30;;;;;;;9.34;91.64;99666.90;1778696;81;21410;-56
2023/04/14 02:54:12;;;;;;;6.22;3.87;;;;;;;9.34;91.80;99676.99;1778745;81;21920;-57
2023/04/14 02:56:42;;;;;;;6.22;3.70;;;;;;;9.32;91.76;99674.47;1778824;79;21022;-57
2023/04/14 02:59:11;;;;;;;6.25;4.05;;;;;;;9.29;91.88;99678.14;1779031;79;20974;-58
2023/04/14 03:01:43;;;;;;;8.70;4.53;;;;;;;9.28;91.98;99684.13;1778008;80;21042;-57
2023/04/14 03:04:13;;;;;;;6.80;4.22;;;;;;;9.28;92.15;99678.66;1778672;80;20974;-57
2023/04/14 03:06:44;;;;;;;9.68;4.47;;;;;;;9.28;92.40;99679.19;1779024;79;20978;-58
2023/04/14 03:09:12;;;;;;;6.05;4.37;;;;;;;9.29;92.59;99680.87;1778957;81;21500;-57
2023/04/14 03:11:42;;;;;;;7.83;4.60;;;;;;;9.28;92.89;99686.02;1778672;81;21515;-57
2023/04/14 03:14:13;;;;;;;7.67;4.47;;;;;;;9.27;93.10;99677.50;1778839;81;21060;-58
2023/04/14 03:16:41;;;;;;;6.55;4.35;;;;;;;9.23;93.13;99689.37;1779036;79;21062;-57
2023/04/14 03:19:11;;;;;;;7.28;4.80;;;;;;;9.21;93.29;99690.95;1778640;81;20975;-58
2023/04/14 03:21:42;;;;;;;6.58;4.60;;;;;;;9.20;93.59;99690.63;1778690;79;21492;-58
2023/04/14 03:24:16;;;;;;;7.67;4.90;;;;;;;9.25;93.89;99696.00;1778720;81;21070;-57
2023/04/14 03:26:43;;;;;;;8.25;4.50;;;;;;;9.25;94.02;99693.27;1778146;79;21548;-57
2023/04/14 03:29:13;;;;;;;8.10;4.72;;;;;;;9.23;94.03;99689.91;1776369;79;21046;-56
2023/04/14 03:31:43;;;;;;;6.50;4.45;;;;;;;9.22;94.22;99682.23;1776255;81;20974;-57
2023/04/14 03:34:14;;;;;;;7.25;4.90;;;;;;;9.23;94.40;99695.37;1776244;79;21443;-57
2023/04/14 03:36:43;;;;;;;7.70;5.20;;;;;;;9.22;94.61;99691.80;1776191;81;21058;-58
2023/04/14 03:39:13;;;;;;;8.25;4.75;;;;;;;9.19;94.62;99695.78;1776202;79;21069;-58
2023/04/14 03:41:46;;;;;;;7.78;4.85;;;;;;;9.15;94.80;99689.05;1776025;79;20983;-58
2023/04/14 03:44:15;;;;;;;7.37;5.45;;;;;;;9.16;95.10;99694.83;1759430;81;21058;-58
2023/04/14 03:46:48;;;;;;;11.12;5.85;;;;;;;9.17;95.31;99698.40;1776463;80;21086;-59
2023/04/14 03:49:18;;;;;;;10.00;5.80;;;;;;;9.16;95.52;99696.72;1759164;81;21484;-58
2023/04/14 03:51:50;;;;;;;9.38;5.62;;;;;;;9.19;95.84;99695.78;1776484;81;21050;-58
2023/04/14 03:54:22;;;;;;;8.00;5.80;;;;;;;9.19;95.78;99695.78;1776178;79;20979;-58
2023/04/14 03:56:53;;;;;;;10.72;5.92;;;;;;;9.18;95.88;99704.19;1776237;80;21419;-59
2023/04/14 03:59:25;;;;;;;9.93;6.15;;;;;;;9.18;95.98;99699.56;1776135;79;21105;-57
2023/04/14 04:01:54;;;;;;;8.08;5.25;;;;;;;9.16;95.97;99703.55;1776267;81;21039;-56
2023/04/14 04:04:23;;;;;;;7.65;5.47;;;;;;;9.11;95.97;99710.16;1776265;80;21022;-57
2023/04/14 04:06:52;;;;;;;11.25;5.87;;;;;;;9.10;96.30;99716.63;1776146;79;21034;-57
2023/04/14 04:09:23;;;;;;;9.88;6.05;;;;;;;9.10;96.54;99708.44;1775845;81;21784;-58
2023/04/14 04:11:52;;;;;;;10.80;6.12;;;;;;;9.09;96.65;99717.16;1776611;79;21517;-58
2023/04/14 04:14:23;;;;;;;10.13;5.87;;;;;;;9.08;96.95;99711.37;1776307;81;21057;-57
2023/04/14 04:16:53;;;;;;;10.75;6.40;;;;;;;9.11;97.13;99719.72;1776221;81;21481;-57
2023/04/14 04:19:23;;;;;;;8.85;6.25;;;;;;;9.11;97.25;99726.03;1775975;79;21077;-57
2023/04/14 04:21:56;;;;;;;10.43;6.00;;;;;;;9.10;97.41;99719.37;1776375;80;20967;-58
2023/04/14 04:24:27;;;;;;;12.55;6.75;;;;;;;9.12;97.67;99722.25;1776515;79;21468;-58
2023/04/14 04:26:58;;;;;;;12.55;6.42;;;;;;;9.12;97.71;99726.34;1776483;79;21050;-57
2023/04/14 04:29:28;;;;;;;11.25;5.72;;;;;;;9.08;97.75;99725.04;1777970;81;21486;-57
2023/04/14 04:31:56;;;;;;;9.63;6.30;;;;;;;9.08;97.93;99726.41;1777902;79;21505;-58
2023/04/14 04:34:30;;;;;;;12.07;6.67;;;;;;;9.07;98.08;99726.61;1777886;80;21007;-58
2023/04/14 04:37:01;;;;;;;10.25;6.70;;;;;;;9.08;98.29;99724.20;1777987;80;21296;-58
2023/04/14 04:39:30;;;;;;;9.58;6.50;;;;;;;9.06;98.32;99728.50;1778173;79;21442;-59
2023/04/14 04:42:05;;;;;;;13.30;6.90;;;;;;;9.05;98.38;99725.97;1777941;81;21529;-58
2023/04/14 04:44:35;;;;;;;10.65;7.58;;;;;;;9.03;98.62;99733.53;1778029;79;21089;-59
2023/04/14 04:47:05;;;;;;;9.65;6.92;;;;;;;9.05;98.86;99736.38;1777952;79;21050;-58
2023/04/14 04:49:34;;;;;;;14.58;7.15;;;;;;;9.07;98.94;99738.38;1777955;81;21426;-59
2023/04/14 04:52:03;;;;;;;11.83;6.62;;;;;;;9.07;99.04;99738.91;1778099;81;21010;-59
2023/04/14 04:54:32;;;;;;;10.88;6.90;;;;;;;9.07;99.11;99742.48;1778142;79;21049;-58
2023/04/14 04:57:02;;;;;;;11.53;7.00;;;;;;;9.07;99.07;99746.58;1778064;81;20999;-59
2023/04/14 04:59:31;;;;;;;12.05;7.05;;;;;;;9.05;98.92;99750.05;1778135;79;21006;-58
2023/04/14 05:02:02;;;;;;;12.98;6.70;;;;;;;9.01;98.85;99755.59;1778280;80;21042;-58
2023/04/14 05:04:30;;;;;;;11.53;7.15;;;;;;;8.99;99.01;99756.32;1778672;80;21010;-59
2023/04/14 05:07:00;;;;;;;10.45;7.10;;;;;;;9.02;99.28;99761.91;1778218;81;21054;-58
2023/04/14 05:09:28;;;;;;;10.60;7.15;;;;;;;9.01;99.25;99758.33;1778187;79;21082;-58
2023/04/14 05:11:57;;;;;;;11.43;7.08;;;;;;;9.01;99.15;99762.42;1777924;81;21503;-56
2023/04/14 05:14:26;;;;;;;12.13;7.10;;;;;;;8.99;99.06;99760.95;1778131;79;21462;-58
2023/04/14 05:16:55;;;;;;;10.75;7.17;;;;;;;8.97;99.13;99769.34;1778170;80;21434;-58
2023/04/14 05:19:25;;;;;;;11.25;7.15;;;;;;;8.98;99.23;99762.83;1777930;79;21061;-57
2023/04/14 05:21:59;;;;;;;11.97;7.80;;;;;;;8.97;99.18;99772.08;1777748;79;21546;-58
2023/04/14 05:24:27;;;;;;;13.80;8.10;;;;;;;9.00;99.37;99771.67;1777893;80;21058;-59
2023/04/14 05:26:56;;;;;;;13.48;8.03;;;;;;;9.02;99.42;99779.14;1778541;79;21014;-57
2023/04/14 05:29:28;;;;;;;10.80;6.95;;;;;;;9.06;99.59;99780.42;1785933;79;21022;-58
2023/04/14 05:31:57;;;;;;;11.60;7.35;;;;;;;9.09;99.55;99783.27;1786730;80;21446;-59
2023/04/14 05:34:26;;;;;;;12.28;7.78;;;;;;;9.07;99.43;99787.57;1786529;79;21426;-59
2023/04/14 05:36:54;;;;;;;9.85;6.55;;;;;;;9.06;99.46;99788.62;1786753;79;21099;-58
2023/04/14 05:39:23;;;;;;;12.20;7.22;;;;;;;9.07;99.54;99785.36;1786682;80;21484;-58
2023/04/14 05:41:52;;;;;;;12.50;7.58;;;;;;;9.04;99.57;99787.98;1786749;80;21018;-58
2023/04/14 05:44:22;;;;;;;12.37;7.47;;;;;;;9.05;99.71;99785.56;1786768;79;21037;-59
2023/04/14 05:46:51;;;;;;;12.43;7.58;;;;;;;9.05;99.61;99787.45;1786362;79;21517;-57
2023/04/14 05:49:21;;;;;;;14.83;8.70;;;;;;;9.03;99.63;99787.66;1786863;79;21026;-58
2023/04/14 05:51:56;;;;;;;16.77;8.53;;;;;;;9.05;99.75;99789.66;1758940;80;21049;-59
2023/04/14 05:54:26;;;;;;;10.72;6.60;;;;;;;9.05;99.62;99787.45;1786705;79;21030;-59
2023/04/14 05:56:56;;;;;;;11.57;7.65;;;;;;;9.05;99.63;99787.45;1786499;80;21476;-58
2023/04/14 05:59:26;;;;;;;11.83;7.83;;;;;;;9.07;99.70;99789.46;1786522;79;21053;-58
2023/04/14 06:01:55;;;;;;;14.45;8.40;;;;;;;9.09;99.81;99797.78;1786858;79;21041;-60
2023/04/14 06:04:24;;;;;;;13.78;7.85;;;;;;;9.12;99.74;99801.50;1787027;80;21025;-59
2023/04/14 06:06:53;;;;;;;13.90;7.87;;;;;;;9.11;99.64;99805.28;1786680;79;21069;-61
2023/04/14 06:09:22;;;;;;;14.63;7.70;;;;;;;9.12;99.78;99805.60;1786582;80;21038;-61
2023/04/14 06:11:53;;;;;;;13.58;8.08;;;;;;;9.17;99.96;99807.20;1786636;79;21065;-59
2023/04/14 06:14:22;;;;;;;14.65;8.38;;;;;;;9.18;99.95;99810.25;1786747;79;20998;-60
2023/04/14 06:16:52;;;;;;;13.25;7.95;;;;;;;9.21;99.95;99809.00;1722198;83;21030;-59
2023/04/14 06:19:22;;;;;;;15.03;8.33;;;;;;;9.20;99.94;99802.70;1698932;83;21051;-59
2023/04/14 06:21:51;;;;;;;13.68;8.08;;;;;;;9.23;100.00;99818.37;1722559;82;21066;-60
2023/04/14 06:24:21;;;;;;;12.68;8.13;;;;;;;9.24;99.98;99817.32;1722482;82;21482;-59
2023/04/14 06:26:51;;;;;;;14.50;8.58;;;;;;;9.25;100.00;99816.28;1722213;82;21667;-59
2023/04/14 06:29:20;;;;;;;12.15;7.45;;;;;;;9.25;100.00;99812.17;1712408;83;21467;-59
2023/04/14 06:31:50;;;;;;;10.80;7.65;;;;;;;9.24;99.91;99820.05;1711473;84;21518;-59
2023/04/14 06:34:21;;;;;;;13.35;7.50;;;;;;;9.23;99.99;99819.73;1725985;81;20999;-58
2023/04/14 06:36:51;;;;;;;12.28;7.78;;;;;;;9.24;100.00;99825.00;1777823;80;21446;-60
2023/04/14 06:39:20;;;;;;;13.88;7.87;;;;;;;9.24;99.89;99837.30;1777863;81;21034;-59
2023/04/14 06:41:49;;;;;;;13.85;7.92;;;;;;;9.20;99.70;99834.13;1778181;79;21427;-60
2023/04/14 06:44:20;;;;;;;13.05;7.87;;;;;;;9.20;99.82;99835.49;1777933;79;21018;-59
2023/04/14 06:46:49;;;;;;;12.80;8.40;;;;;;;9.23;100.00;99838.87;1778177;79;21038;-57
2023/04/14 06:49:20;;;;;;;14.07;8.23;;;;;;;9.26;100.00;99841.20;1777516;81;21030;-59
2023/04/14 06:51:49;;;;;;;13.20;8.00;;;;;;;9.31;100.00;99835.96;1777881;81;21441;-61
2023/04/14 06:54:18;;;;;;;10.88;7.62;;;;;;;9.33;100.00;99838.81;1777821;79;21121;-59
2023/04/14 06:56:48;;;;;;;12.93;9.03;;;;;;;9.36;100.00;99839.77;1777993;79;20999;-60
2023/04/14 06:59:20;;;;;;;14.98;9.18;;;;;;;9.36;100.00;99841.14;1777833;79;20971;-60
2023/04/14 07:01:49;;;;;;;12.53;8.35;;;;;;;9.37;100.00;99845.56;1778123;81;21500;-59
2023/04/14 07:04:19;;;;;;;14.43;8.18;;;;;;;9.41;100.00;99848.73;1778158;79;21014;-59
2023/04/14 07:06:48;;;;;;;14.47;8.18;;;;;;;9.39;100.00;99847.56;1778185;79;21011;-60
2023/04/14 07:09:18;;;;;;;13.60;8.15;;;;;;;9.39;100.00;99858.50;1778001;81;21001;-59
2023/04/14 07:11:46;;;;;;;11.22;8.25;;;;;;;9.40;100.00;99866.19;1777806;80;20983;-60
2023/04/14 07:14:15;;;;;;;12.00;7.95;;;;;;;9.42;100.00;99867.67;1778115;79;21019;-60
2023/04/14 07:16:47;;;;;;;12.78;8.23;;;;;;;9.44;100.00;99867.47;1711699;83;21074;-59
2023/04/14 07:19:16;;;;;;;14.03;8.00;;;;;;;9.45;100.00;99871.89;1711533;84;21598;-59
2023/04/14 07:21:45;;;;;;;12.90;7.65;;;;;;;9.44;100.00;99871.05;1711653;84;21039;-58
2023/04/14 07:24:14;;;;;;;13.48;8.20;;;;;;;9.44;100.00;99868.83;1711550;84;21031;-60
2023/04/14 07:26:44;;;;;;;13.25;8.10;;;;;;;9.49;100.00;99871.27;1711660;84;21074;-59
2023/04/14 07:29:13;;;;;;;13.35;8.45;;;;;;;9.51;100.00;99863.71;1711372;82;21501;-58
2023/04/14 07:31:44;;;;;;;14.58;8.65;;;;;;;9.53;100.00;99870.34;1711535;84;21499;-60
2023/04/14 07:34:12;;;;;;;12.55;8.13;;;;;;;9.57;100.00;99866.16;1724795;81;21019;-59
2023/04/14 07:36:41;;;;;;;13.95;8.20;;;;;;;9.61;100.00;99870.16;1778224;79;21430;-59
2023/04/14 07:39:10;;;;;;;11.95;8.30;;;;;;;9.63;100.00;99864.48;1747983;81;21497;-58
2023/04/14 07:41:41;;;;;;;16.15;8.93;;;;;;;9.65;100.00;99863.23;1778049;79;21030;-62
2023/04/14 07:44:10;;;;;;;12.47;8.58;;;;;;;9.66;100.00;99871.77;1777510;79;21482;-60
2023/04/14 07:46:40;;;;;;;13.08;8.95;;;;;;;9.68;100.00;99866.93;1777989;80;21022;-59
2023/04/14 07:49:09;;;;;;;15.90;9.73;;;;;;;9.74;100.00;99864.74;1777991;79;21042;-59
2023/04/14 07:51:37;;;;;;;19.20;8.78;;;;;;;9.79;100.00;99867.73;1743330;80;21477;-60
2023/04/14 07:54:07;;;;;;;17.37;10.03;;;;;;;9.84;100.00;99871.22;1739461;81;21062;-60
2023/04/14 07:56:37;;;;;;;14.43;9.60;;;;;;;9.83;100.00;99863.53;1753725;80;21442;-60
2023/04/14 07:59:05;;;;;;;10.98;7.70;;;;;;;9.84;100.00;99866.59;1743057;81;21458;-58
2023/04/14 08:01:34;;;;;;;14.35;8.98;;;;;;;9.84;100.00;99865.75;1728969;83;21471;-59
2023/04/14 08:04:02;;;;;;;15.55;9.33;;;;;;;9.82;100.00;99865.95;1728926;83;21110;-61
2023/04/14 08:06:32;;;;;;;15.55;9.05;;;;;;;9.85;100.00;99866.06;1729085;83;21097;-60
2023/04/14 08:09:02;;;;;;;14.25;9.33;;;;;;;9.87;100.00;99872.17;1737545;81;21486;-60
2023/04/14 08:11:33;;;;;;;12.47;8.83;;;;;;;9.88;100.00;99876.59;1741690;82;21189;-59
2023/04/14 08:14:03;;;;;;;15.63;8.88;;;;;;;9.89;100.00;99880.18;1741524;82;21458;-59
2023/04/14 08:16:35;;;;;;;12.33;8.18;;;;;;;9.91;100.00;99876.19;1741900;82;21113;-59
2023/04/14 08:19:04;;;;;;;15.08;9.50;;;;;;;9.92;100.00;99874.30;1741232;81;21482;-60
2023/04/14 08:21:33;;;;;;;16.73;9.53;;;;;;;9.95;100.00;99877.98;1741633;82;21534;-58
2023/04/14 08:24:05;;;;;;;15.35;9.15;;;;;;;9.98;100.00;99881.68;1680199;85;21114;-60
2023/04/14 08:26:33;;;;;;;19.20;10.00;;;;;;;10.00;100.00;99884.53;1666005;85;21077;-59
2023/04/14 08:29:02;;;;;;;17.75;9.40;;;;;;;10.02;100.00;99881.58;1660920;85;21082;-60
2023/04/14 08:31:37;;;;;;;16.45;10.23;;;;;;;10.07;100.00;99886.75;1663453;84;21078;-60
2023/04/14 08:34:06;;;;;;;15.50;9.68;;;;;;;10.13;100.00;99890.55;1661370;86;21046;-62
2023/04/14 08:36:34;;;;;;;13.58;8.30;;;;;;;10.16;100.00;99888.77;1664254;86;21057;-60
2023/04/14 08:39:06;;;;;;;14.18;8.98;;;;;;;10.17;100.00;99886.35;1663192;86;21098;-60
2023/04/14 08:41:35;;;;;;;13.93;9.05;;;;;;;10.17;100.00;99883.61;1679705;83;21528;-63
2023/04/14 08:44:05;;;;;;;17.95;9.93;;;;;;;10.19;100.00;99884.25;1698544;81;21512;-59
2023/04/14 08:46:35;;;;;;;13.08;8.90;;;;;;;10.22;100.00;99877.55;1731611;82;21040;-58
2023/04/14 08:49:08;;;;;;;12.90;9.20;;;;;;;10.23;100.00;99884.71;1731512;81;21018;-59
2023/04/14 08:51:38;;;;;;;16.85;9.23;;;;;;;10.24;100.00;99879.03;1731275;81;21000;-59
2023/04/14 08:54:10;;;;;;;12.20;8.90;;;;;;;10.28;100.00;99883.03;1730803;83;21024;-60
2023/04/14 08:56:41;;;;;;;14.95;9.05;;;;;;;10.29;100.00;99875.14;1730689;83;21380;-58
2023/04/14 08:59:10;;;;;;;11.43;8.33;;;;;;;10.33;100.00;99884.62;1738871;81;21159;-59
2023/04/14 09:01:40;;;;;;;12.82;8.70;;;;;;;10.34;100.00;99879.98;1767421;81;21086;-59
2023/04/14 09:04:09;;;;;;;13.60;8.68;;;;;;;10.36;100.00;99883.36;1767332;81;21508;-59
2023/04/14 09:06:38;;;;;;;12.50;8.75;;;;;;;10.39;100.00;99881.57;1767338;79;21054;-58
2023/04/14 09:09:07;;;;;;;13.95;9.38;;;;;;;10.42;100.00;99884.77;1747908;80;21525;-59
2023/04/14 09:11:36;;;;;;;17.70;12.78;;;;;;;10.44;100.00;99885.40;1767368;81;21095;-60
2023/04/14 09:14:05;;;;;;;15.43;11.83;;;;;;;10.46;99.98;99886.03;1767474;81;21506;-58
2023/04/14 09:16:35;;;;;;;18.25;13.08;;;;;;;10.47;99.45;99890.45;1767501;81;21105;-59
2023/04/14 09:19:05;;;;;;;17.07;10.63;;;;;;;10.55;99.62;99889.41;1767510;81;21102;-57
2023/04/14 09:21:38;;;;;;;13.72;8.85;;;;;;;10.63;99.31;99895.20;1748756;81;21086;-64
2023/04/14 09:24:08;;;;;;;12.47;8.70;;;;;;;10.68;99.11;99900.89;1765725;81;21070;-61
2023/04/14 09:26:39;;;;;;;12.88;8.33;;;;;;;10.67;97.36;99895.09;1754274;81;21481;-57
2023/04/14 09:29:07;;;;;;;11.93;8.60;;;;;;;10.63;96.42;99890.56;1748127;80;21536;-59
2023/04/14 09:31:37;;;;;;;13.05;8.55;;;;;;;10.62;96.00;99900.37;1749211;81;21062;-58
2023/04/14 09:34:17;;;;;;;12.33;8.20;;;;;;;10.64;95.64;99901.00;1749311;82;21086;-57
2023/04/14 09:37:04;;;;;;;13.05;8.23;;;;;;;10.66;95.47;99903.00;1749280;81;21519;-58
2023/04/14 09:39:35;;;;;;;11.60;8.18;;;;;;;10.66;95.12;99903.84;1749083;82;21090;-58
2023/04/14 09:42:05;;;;;;;13.83;8.28;;;;;;;10.65;94.78;99904.90;1749087;82;21058;-58
2023/04/14 09:44:33;;;;;;;13.22;8.15;;;;;;;10.64;94.29;99911.43;1749415;81;21488;-59
2023/04/14 09:47:05;;;;;;;12.50;8.15;;;;;;;10.64;94.19;99910.59;1749368;81;21074;-57
2023/04/14 09:49:34;;;;;;;11.05;8.18;;;;;;;10.65;94.06;99909.53;1749267;82;21026;-58
2023/04/14 09:52:07;;;;;;;11.55;8.28;;;;;;;10.65;93.91;99917.75;1747394;81;21013;-60
2023/04/14 09:54:39;;;;;;;12.18;8.18;;;;;;;10.63;94.03;99919.86;1743829;82;21208;-62
2023/04/14 09:57:09;;;;;;;10.65;7.65;;;;;;;10.63;93.58;99924.81;1743666;82;21532;-58
2023/04/14 09:59:39;;;;;;;11.78;8.05;;;;;;;10.64;93.56;99920.18;1757861;81;21404;-59
2023/04/14 10:02:08;;;;;;;17.73;8.30;;;;;;;10.64;93.53;99926.50;1777624;81;21471;-60
2023/04/14 10:04:37;;;;;;;13.62;8.88;;;;;;;10.65;93.66;99925.45;1777735;81;21011;-59
2023/04/14 10:07:07;;;;;;;11.97;8.65;;;;;;;10.67;93.50;99927.98;1777483;81;21083;-58
2023/04/14 10:09:39;;;;;;;10.68;7.62;;;;;;;10.66;93.34;99921.66;1777499;81;21238;-60
2023/04/14 10:12:13;;;;;;;12.63;8.00;;;;;;;10.66;93.07;99930.41;1777763;80;21451;-58
2023/04/14 10:14:43;;;;;;;11.75;8.03;;;;;;;10.65;92.95;99928.19;1777615;81;21031;-59
2023/04/14 10:17:12;;;;;;;13.78;8.53;;;;;;;10.66;92.95;99923.55;1778005;80;21059;-59
2023/04/14 10:19:41;;;;;;;13.32;8.18;;;;;;;10.67;92.80;99927.98;1777817;80;21443;-59
2023/04/14 10:22:09;;;;;;;12.98;8.50;;;;;;;10.68;93.08;99930.51;1777838;81;21672;-60
2023/04/14 10:24:39;;;;;;;10.50;7.33;;;;;;;10.68;93.11;99932.41;1777809;81;21443;-59
2023/04/14 10:27:07;;;;;;;12.98;8.23;;;;;;;10.68;93.30;99935.14;1748036;81;21000;-58
2023/04/14 10:29:40;;;;;;;13.03;7.70;;;;;;;10.67;93.26;99938.41;1774759;80;21099;-59
2023/04/14 10:32:10;;;;;;;11.68;7.50;;;;;;;10.67;93.17;99938.94;1772621;81;21075;-60
2023/04/14 10:34:39;;;;;;;13.88;7.83;;;;;;;10.65;92.99;99947.37;1772881;81;21460;-57
2023/04/14 10:37:13;;;;;;;11.28;8.03;;;;;;;10.63;92.98;99945.36;1772492;81;21452;-59
2023/04/14 10:39:42;;;;;;;12.18;8.40;;;;;;;10.62;92.82;99952.42;1772402;81;21008;-59
2023/04/14 10:42:11;;;;;;;11.68;7.87;;;;;;;10.60;92.38;99952.63;1772474;81;21415;-58
2023/04/14 10:44:40;;;;;;;10.95;7.60;;;;;;;10.57;92.36;99953.05;1772331;80;21020;-60
2023/04/14 10:47:08;;;;;;;10.95;7.30;;;;;;;10.57;92.48;99953.57;1772802;81;21526;-59
2023/04/14 10:49:41;;;;;;;12.28;7.80;;;;;;;10.57;92.64;99952.20;1772540;81;21035;-59
2023/04/14 10:52:21;;;;;;;12.82;7.30;;;;;;;10.59;92.94;99954.20;1759834;81;21034;-59
2023/04/14 10:55:02;;;;;;;10.60;7.12;;;;;;;10.60;92.98;99948.52;1738344;82;21046;-57
2023/04/14 10:57:30;;;;;;;10.25;6.72;;;;;;;10.61;92.91;99960.32;1738430;81;21034;-58
2023/04/14 11:00:00;;;;;;;11.43;7.53;;;;;;;10.61;92.66;99957.05;1712069;81;21091;-58
2023/04/14 11:02:31;;;;;;;12.30;7.40;;;;;;;10.62;92.56;99966.12;1748779;81;21067;-58
2023/04/14 11:05:10;;;;;;;10.75;7.40;;;;;;;10.67;92.68;99969.08;1769788;81;21059;-59
2023/04/14 11:07:47;;;;;;;15.23;8.03;;;;;;;10.69;92.64;99967.81;1769575;80;21457;-59
2023/04/14 11:10:24;;;;;;;20.80;9.20;;;;;;;10.70;92.32;99968.13;1769821;80;21636;-60
2023/04/14 11:13:05;;;;;;;22.22;10.38;;;;;;;10.73;92.21;99963.60;1769619;81;21486;-58
2023/04/14 11:15:50;;;;;;;21.90;9.68;;;;;;;10.72;91.91;99967.92;1713621;84;21031;-61
2023/04/14 11:18:37;;;;;;;16.17;7.65;;;;;;;10.76;91.97;99972.77;1713756;84;21039;-59
2023/04/14 11:21:09;;;;;;;16.32;7.08;;;;;;;10.84;92.04;99974.99;1713533;84;21043;-56
2023/04/14 11:23:40;;;;;;;12.88;7.60;;;;;;;10.88;91.97;99978.47;1713548;83;21074;-60
2023/04/14 11:26:11;;;;;;;9.78;7.00;;;;;;;10.94;91.85;99985.86;1713628;84;21126;-60
2023/04/14 11:28:42;;;;;;;11.30;7.70;;;;;;;10.97;91.60;99984.06;1713622;84;21562;-59
2023/04/14 11:31:14;;;;;;;13.13;7.12;;;;;;;11.01;91.49;99983.95;1713580;84;21105;-59
2023/04/14 11:33:44;;;;;;;11.03;7.00;;;;;;;11.05;91.13;99987.13;1745472;80;21063;-59
2023/04/14 11:36:14;;;;;;;10.32;6.78;;;;;;;11.08;90.76;99987.58;1780447;80;21019;-61
2023/04/14 11:38:44;;;;;;;11.80;6.60;;;;;;;11.11;90.51;99981.67;1780236;80;21497;-57
2023/04/14 11:41:14;;;;;;;12.58;6.80;;;;;;;11.12;90.06;99982.52;1780253;80;21039;-59
2023/04/14 11:43:45;;;;;;;11.97;7.17;;;;;;;11.11;89.31;99984.41;1780133;80;21059;-59
2023/04/14 11:46:15;;;;;;;11.40;7.08;;;;;;;11.09;88.88;99988.42;1780512;80;21070;-59
2023/04/14 11:48:43;;;;;;;11.15;7.08;;;;;;;11.09;88.79;99977.45;1780936;80;21051;-59